Time;durP1;ratioP1;P1;durP2;ratioP2;P2;SDS_P1;SDS_P2;PMS_P1;PMS_P2;Temp;Humidity;BMP_temperature;BMP_pressure;BME280_temperature;BME280_humidity;BME280_pressure;Samples;Min_cycle;Max_cycle;Signal;HPM_P1;HPM_P2
2022/12/09 00:01:55;;;;;;;;;;;;;;;;;;7368634;19;873;-64
2022/12/09 00:04:23;;;;;;;;;;;;;;;;;;7369210;19;792;-63
2022/12/09 00:06:51;;;;;;;;;;;;;;;;;;7365610;19;1634;-64
2022/12/09 00:09:19;;;;;;;;;;;;;;;;;;7367793;19;873;-67
2022/12/09 00:11:47;;;;;;;;;;;;;;;;;;7365749;19;1852;-65
2022/12/09 00:14:16;;;;;;;;;;;;;;;;;;7368235;19;1332;-65
2022/12/09 00:16:44;;;;;;;;;;;;;;;;;;7366342;19;1291;-67
2022/12/09 00:19:12;;;;;;;;;;;;;;;;;;7366573;19;771;-64
2022/12/09 00:21:41;;;;;;;;;;;;;;;;;;7367828;19;1472;-66
2022/12/09 00:24:09;;;;;;;;;;;;;;;;;;7367836;19;811;-65
2022/12/09 00:26:37;;;;;;;;;;;;;;;;;;7364726;19;1366;-63
2022/12/09 00:29:05;;;;;;;;;;;;;;;;;;7367708;19;1587;-63
2022/12/09 00:31:33;;;;;;;;;;;;;;;;;;7365616;19;1868;-65
2022/12/09 00:34:01;;;;;;;;;;;;;;;;;;7373315;19;1683;-64
2022/12/09 00:36:30;;;;;;;;;;;;;;;;;;7384199;19;1294;-64
2022/12/09 00:38:58;;;;;;;;;;;;;;;;;;7386119;19;1724;-64
2022/12/09 00:41:26;;;;;;;;;;;;;;;;;;7385563;19;810;-64
2022/12/09 00:43:55;;;;;;;;;;;;;;;;;;7384321;19;774;-67
2022/12/09 00:46:23;;;;;;;;;;;;;;;;;;7377313;19;1326;-64
2022/12/09 00:48:52;;;;;;;;;;;;;;;;;;7367485;19;861;-63
2022/12/09 00:51:20;;;;;;;;;;;;;;;;;;7365000;19;1865;-63
2022/12/09 00:53:52;;;;;;;;;;;;;;;;;;7367528;19;830;-61
2022/12/09 00:56:20;;;;;;;;;;;;;;;;;;7365615;19;1282;-63
2022/12/09 00:58:48;;;;;;;;;;;;;;;;;;7365183;19;790;-60
2022/12/09 01:01:16;;;;;;;;;;;;;;;;;;7366970;19;830;-60
2022/12/09 01:03:45;;;;;;;;;;;;;;;;;;7369473;19;1662;-66
2022/12/09 01:06:13;;;;;;;;;;;;;;;;;;7365757;19;1334;-63
2022/12/09 01:08:41;;;;;;;;;;;;;;;;;;7364998;19;842;-61
2022/12/09 01:11:09;;;;;;;;;;;;;;;;;;7366821;19;1861;-62
2022/12/09 01:13:37;;;;;;;;;;;;;;;;;;7366602;19;791;-63
2022/12/09 01:16:05;;;;;;;;;;;;;;;;;;7363843;19;1266;-64
2022/12/09 01:18:33;;;;;;;;;;;;;;;;;;7365440;19;831;-64
2022/12/09 01:21:01;;;;;;;;;;;;;;;;;;7366475;19;894;-65
2022/12/09 01:23:30;;;;;;;;;;;;;;;;;;7364658;19;787;-64
2022/12/09 01:25:58;;;;;;;;;;;;;;;;;;7369549;19;1711;-64
2022/12/09 01:28:26;;;;;;;;;;;;;;;;;;7363633;19;855;-64
2022/12/09 01:30:54;;;;;;;;;;;;;;;;;;7373579;19;1845;-64
2022/12/09 01:33:22;;;;;;;;;;;;;;;;;;7372270;19;823;-63
2022/12/09 01:35:50;;;;;;;;;;;;;;;;;;7372106;19;1310;-62
2022/12/09 01:38:18;;;;;;;;;;;;;;;;;;7369631;19;800;-64
2022/12/09 01:40:47;;;;;;;;;;;;;;;;;;7371772;19;809;-63
2022/12/09 01:43:15;;;;;;;;;;;;;;;;;;7372132;19;799;-64
2022/12/09 01:45:43;;;;;;;;;;;;;;;;;;7369748;19;1290;-62
2022/12/09 01:48:13;;;;;;;;;;;;;;;;;;7371758;19;899;-61
2022/12/09 01:50:43;;;;;;;;;;;;;;;;;;7372229;19;736;-63
2022/12/09 01:53:11;;;;;;;;;;;;;;;;;;7369523;19;1849;-63
2022/12/09 01:55:39;;;;;;;;;;;;;;;;;;7371921;19;1275;-64
2022/12/09 01:58:07;;;;;;;;;;;;;;;;;;7374214;19;1861;-61
2022/12/09 02:00:36;;;;;;;;;;;;;;;;;;7370240;19;884;-64
2022/12/09 02:03:04;;;;;;;;;;;;;;;;;;7370357;19;783;-63
2022/12/09 02:05:32;;;;;;;;;;;;;;;;;;7370026;19;1282;-65
2022/12/09 02:08:01;;;;;;;;;;;;;;;;;;7368846;19;893;-63
2022/12/09 02:10:29;;;;;;;;;;;;;;;;;;7369309;19;795;-65
2022/12/09 02:13:10;;;;;;;;;;;;;;;;;;7367418;19;1849;-59
2022/12/09 02:15:38;;;;;;;;;;;;;;;;;;7373766;19;1744;-63
2022/12/09 02:18:06;;;;;;;;;;;;;;;;;;7368391;19;729;-63
2022/12/09 02:20:34;;;;;;;;;;;;;;;;;;7370016;19;869;-64
2022/12/09 02:23:03;;;;;;;;;;;;;;;;;;7370406;19;870;-62
2022/12/09 02:25:31;;;;;;;;;;;;;;;;;;7372839;19;1909;-64
2022/12/09 02:27:59;;;;;;;;;;;;;;;;;;7367463;19;818;-63
2022/12/09 02:30:27;;;;;;;;;;;;;;;;;;7369715;19;783;-64
2022/12/09 02:32:55;;;;;;;;;;;;;;;;;;7367786;19;1862;-62
2022/12/09 02:35:23;;;;;;;;;;;;;;;;;;7370168;19;1322;-64
2022/12/09 02:37:54;;;;;;;;;;;;;;;;;;7369345;19;1696;-64
2022/12/09 02:40:22;;;;;;;;;;;;;;;;;;7371586;19;1605;-61
2022/12/09 02:42:50;;;;;;;;;;;;;;;;;;7370643;19;827;-63
2022/12/09 02:45:18;;;;;;;;;;;;;;;;;;7370404;19;1271;-65
2022/12/09 02:47:50;;;;;;;;;;;;;;;;;;7367807;19;786;-61
2022/12/09 02:50:19;;;;;;;;;;;;;;;;;;7369095;19;783;-61
2022/12/09 02:52:47;;;;;;;;;;;;;;;;;;7367726;19;1842;-62
2022/12/09 02:55:15;;;;;;;;;;;;;;;;;;7369610;19;1326;-63
2022/12/09 02:57:43;;;;;;;;;;;;;;;;;;7369117;19;876;-63
2022/12/09 03:00:14;;;;;;;;;;;;;;;;;;7369048;19;771;-63
2022/12/09 03:02:42;;;;;;;;;;;;;;;;;;7370816;19;814;-62
2022/12/09 03:05:10;;;;;;;;;;;;;;;;;;7369609;19;956;-60
2022/12/09 03:07:38;;;;;;;;;;;;;;;;;;7367459;19;1098;-59
2022/12/09 03:10:06;;;;;;;;;;;;;;;;;;7370328;19;798;-60
2022/12/09 03:12:34;;;;;;;;;;;;;;;;;;7366862;19;1865;-63
2022/12/09 03:15:02;;;;;;;;;;;;;;;;;;7371860;19;1881;-65
2022/12/09 03:17:31;;;;;;;;;;;;;;;;;;7366712;19;1279;-64
2022/12/09 03:19:59;;;;;;;;;;;;;;;;;;7370275;19;1814;-64
2022/12/09 03:22:27;;;;;;;;;;;;;;;;;;7369386;19;795;-61
2022/12/09 03:24:55;;;;;;;;;;;;;;;;;;7369579;19;869;-66
2022/12/09 03:27:23;;;;;;;;;;;;;;;;;;7366222;19;1328;-62
2022/12/09 03:29:51;;;;;;;;;;;;;;;;;;7369009;19;840;-64
2022/12/09 03:32:19;;;;;;;;;;;;;;;;;;7370873;19;1850;-64
2022/12/09 03:34:48;;;;;;;;;;;;;;;;;;7371016;19;851;-61
2022/12/09 03:37:16;;;;;;;;;;;;;;;;;;7369449;19;1282;-65
2022/12/09 03:39:44;;;;;;;;;;;;;;;;;;7370802;19;1820;-64
2022/12/09 03:42:12;;;;;;;;;;;;;;;;;;7370056;19;866;-62
2022/12/09 03:44:40;;;;;;;;;;;;;;;;;;7370509;19;817;-65
2022/12/09 03:47:08;;;;;;;;;;;;;;;;;;7367628;19;1851;-63
2022/12/09 03:49:36;;;;;;;;;;;;;;;;;;7366449;19;763;-63
2022/12/09 03:52:05;;;;;;;;;;;;;;;;;;7367105;19;1850;-63
2022/12/09 03:54:33;;;;;;;;;;;;;;;;;;7370331;19;1765;-63
2022/12/09 03:57:01;;;;;;;;;;;;;;;;;;7366587;19;1301;-62
2022/12/09 03:59:29;;;;;;;;;;;;;;;;;;7368307;19;819;-62
2022/12/09 04:01:57;;;;;;;;;;;;;;;;;;7368595;19;845;-62
2022/12/09 04:04:25;;;;;;;;;;;;;;;;;;7366916;19;840;-63
2022/12/09 04:06:54;;;;;;;;;;;;;;;;;;7365757;19;1299;-61
2022/12/09 04:09:22;;;;;;;;;;;;;;;;;;7367866;19;812;-63
2022/12/09 04:11:50;;;;;;;;;;;;;;;;;;7367664;19;1849;-64
2022/12/09 04:14:19;;;;;;;;;;;;;;;;;;7366427;19;845;-64
2022/12/09 04:16:47;;;;;;;;;;;;;;;;;;7365766;19;1282;-63
2022/12/09 04:19:15;;;;;;;;;;;;;;;;;;7371581;19;1800;-64
2022/12/09 04:21:44;;;;;;;;;;;;;;;;;;7371808;19;1457;-60
2022/12/09 04:24:12;;;;;;;;;;;;;;;;;;7368067;19;903;-63
2022/12/09 04:26:40;;;;;;;;;;;;;;;;;;7365542;19;1274;-63
2022/12/09 04:29:08;;;;;;;;;;;;;;;;;;7367432;19;854;-61
2022/12/09 04:31:36;;;;;;;;;;;;;;;;;;7367748;19;1940;-62
2022/12/09 04:34:04;;;;;;;;;;;;;;;;;;7372030;19;1794;-64
2022/12/09 04:36:32;;;;;;;;;;;;;;;;;;7364380;19;1278;-64
2022/12/09 04:39:01;;;;;;;;;;;;;;;;;;7366132;19;958;-64
2022/12/09 04:41:29;;;;;;;;;;;;;;;;;;7367393;19;806;-64
2022/12/09 04:43:57;;;;;;;;;;;;;;;;;;7367927;19;805;-64
2022/12/09 04:46:26;;;;;;;;;;;;;;;;;;7368976;19;1776;-64
2022/12/09 04:48:54;;;;;;;;;;;;;;;;;;7364947;19;778;-64
2022/12/09 04:51:22;;;;;;;;;;;;;;;;;;7369792;19;2048;-62
2022/12/09 04:53:50;;;;;;;;;;;;;;;;;;7362326;19;1860;-63
2022/12/09 04:56:19;;;;;;;;;;;;;;;;;;7365086;19;1259;-64
2022/12/09 04:58:47;;;;;;;;;;;;;;;;;;7365906;19;946;-64
2022/12/09 05:01:15;;;;;;;;;;;;;;;;;;7370563;19;1808;-65
2022/12/09 05:03:43;;;;;;;;;;;;;;;;;;7366473;19;823;-64
2022/12/09 05:06:12;;;;;;;;;;;;;;;;;;7370615;19;1321;-65
2022/12/09 05:08:40;;;;;;;;;;;;;;;;;;7371983;19;817;-66
2022/12/09 05:11:08;;;;;;;;;;;;;;;;;;7371036;19;756;-66
2022/12/09 05:13:36;;;;;;;;;;;;;;;;;;7375709;19;2122;-65
2022/12/09 05:16:04;;;;;;;;;;;;;;;;;;7371646;19;1846;-65
2022/12/09 05:18:32;;;;;;;;;;;;;;;;;;7371896;19;847;-65
2022/12/09 05:21:00;;;;;;;;;;;;;;;;;;7372014;19;859;-66
2022/12/09 05:23:28;;;;;;;;;;;;;;;;;;7371802;19;850;-65
2022/12/09 05:25:57;;;;;;;;;;;;;;;;;;7375477;19;1905;-65
2022/12/09 05:28:25;;;;;;;;;;;;;;;;;;7371214;19;857;-65
2022/12/09 05:30:53;;;;;;;;;;;;;;;;;;7373490;19;1814;-65
2022/12/09 05:33:21;;;;;;;;;;;;;;;;;;7371538;19;1842;-65
2022/12/09 05:35:49;;;;;;;;;;;;;;;;;;7373752;19;1805;-64
2022/12/09 05:38:17;;;;;;;;;;;;;;;;;;7373614;19;1758;-65
2022/12/09 05:40:45;;;;;;;;;;;;;;;;;;7375360;19;1752;-64
2022/12/09 05:43:14;;;;;;;;;;;;;;;;;;7374311;19;1583;-60
2022/12/09 05:45:42;;;;;;;;;;;;;;;;;;7370960;19;1633;-66
2022/12/09 05:48:10;;;;;;;;;;;;;;;;;;7373716;19;2120;-65
2022/12/09 05:50:39;;;;;;;;;;;;;;;;;;7372326;19;723;-64
2022/12/09 05:53:07;;;;;;;;;;;;;;;;;;7375059;19;1857;-65
2022/12/09 05:55:35;;;;;;;;;;;;;;;;;;7371594;19;1308;-64
2022/12/09 05:58:03;;;;;;;;;;;;;;;;;;7371035;19;848;-65
2022/12/09 06:00:31;;;;;;;;;;;;;;;;;;7371727;19;807;-65
2022/12/09 06:02:59;;;;;;;;;;;;;;;;;;7371751;19;844;-65
2022/12/09 06:05:27;;;;;;;;;;;;;;;;;;7371719;19;1782;-66
2022/12/09 06:07:55;;;;;;;;;;;;;;;;;;7372247;19;1832;-65
2022/12/09 06:10:24;;;;;;;;;;;;;;;;;;7375757;19;1797;-66
2022/12/09 06:12:52;;;;;;;;;;;;;;;;;;7371912;19;1910;-65
2022/12/09 06:15:20;;;;;;;;;;;;;;;;;;7372441;19;1804;-65
2022/12/09 06:17:48;;;;;;;;;;;;;;;;;;7373896;19;2149;-65
2022/12/09 06:20:16;;;;;;;;;;;;;;;;;;7374591;19;1823;-65
2022/12/09 06:22:44;;;;;;;;;;;;;;;;;;7370816;19;813;-65
2022/12/09 06:25:12;;;;;;;;;;;;;;;;;;7373792;19;1785;-66
2022/12/09 06:27:41;;;;;;;;;;;;;;;;;;7371432;19;1902;-65
2022/12/09 06:30:09;;;;;;;;;;;;;;;;;;7374885;19;2282;-66
2022/12/09 06:32:37;;;;;;;;;;;;;;;;;;7373685;19;2089;-65
2022/12/09 06:35:06;;;;;;;;;;;;;;;;;;7373693;19;1762;-64
2022/12/09 06:37:34;;;;;;;;;;;;;;;;;;7371381;19;1677;-66
2022/12/09 06:40:02;;;;;;;;;;;;;;;;;;7370947;19;1770;-67
2022/12/09 06:42:30;;;;;;;;;;;;;;;;;;7371058;19;1844;-65
2022/12/09 06:44:58;;;;;;;;;;;;;;;;;;7372492;19;1796;-66
2022/12/09 06:47:26;;;;;;;;;;;;;;;;;;7377558;19;1696;-66
2022/12/09 06:49:56;;;;;;;;;;;;;;;;;;7395478;19;868;-66
2022/12/09 06:52:24;;;;;;;;;;;;;;;;;;7391418;19;1841;-66
2022/12/09 06:54:52;;;;;;;;;;;;;;;;;;7396766;19;1102;-68
2022/12/09 06:57:20;;;;;;;;;;;;;;;;;;7391514;19;1781;-65
2022/12/09 06:59:48;;;;;;;;;;;;;;;;;;7375332;19;1773;-65
2022/12/09 07:02:17;;;;;;;;;;;;;;;;;;7373995;19;1745;-64
2022/12/09 07:04:45;;;;;;;;;;;;;;;;;;7372194;19;1800;-67
2022/12/09 07:07:14;;;;;;;;;;;;;;;;;;7370219;19;1832;-63
2022/12/09 07:09:42;;;;;;;;;;;;;;;;;;7373544;19;1763;-66
2022/12/09 07:12:10;;;;;;;;;;;;;;;;;;7374146;19;1830;-66
2022/12/09 07:14:38;;;;;;;;;;;;;;;;;;7371410;19;2261;-67
2022/12/09 07:17:06;;;;;;;;;;;;;;;;;;7373818;19;1700;-67
2022/12/09 07:19:35;;;;;;;;;;;;;;;;;;7370734;19;1757;-67
2022/12/09 07:22:03;;;;;;;;;;;;;;;;;;7371089;19;1783;-65
2022/12/09 07:24:31;;;;;;;;;;;;;;;;;;7374741;19;1751;-67
2022/12/09 07:26:59;;;;;;;;;;;;;;;;;;7371694;19;1814;-66
2022/12/09 07:29:27;;;;;;;;;;;;;;;;;;7368707;19;749;-65
2022/12/09 07:31:55;;;;;;;;;;;;;;;;;;7373492;19;1800;-66
2022/12/09 07:34:23;;;;;;;;;;;;;;;;;;7368276;19;2078;-64
2022/12/09 07:36:52;;;;;;;;;;;;;;;;;;7370415;19;1826;-65
2022/12/09 07:39:20;;;;;;;;;;;;;;;;;;7373865;19;2033;-64
2022/12/09 07:41:49;;;;;;;;;;;;;;;;;;7371028;19;1802;-67
2022/12/09 07:44:17;;;;;;;;;;;;;;;;;;7372957;19;1787;-66
2022/12/09 07:46:45;;;;;;;;;;;;;;;;;;7372281;19;1818;-66
2022/12/09 07:49:13;;;;;;;;;;;;;;;;;;7373459;19;1647;-66
2022/12/09 07:51:41;;;;;;;;;;;;;;;;;;7371672;19;1759;-66
2022/12/09 07:54:09;;;;;;;;;;;;;;;;;;7372161;19;1857;-66
2022/12/09 07:56:37;;;;;;;;;;;;;;;;;;7371416;19;1737;-65
2022/12/09 07:59:06;;;;;;;;;;;;;;;;;;7372618;19;1979;-66
2022/12/09 08:01:34;;;;;;;;;;;;;;;;;;7372069;19;1703;-66
2022/12/09 08:04:02;;;;;;;;;;;;;;;;;;7373858;19;1678;-66
2022/12/09 08:06:30;;;;;;;;;;;;;;;;;;7371776;19;1808;-66
2022/12/09 08:08:59;;;;;;;;;;;;;;;;;;7371295;19;1519;-66
2022/12/09 08:11:27;;;;;;;;;;;;;;;;;;7370697;19;1843;-67
2022/12/09 08:13:55;;;;;;;;;;;;;;;;;;7372306;19;1878;-68
2022/12/09 08:16:23;;;;;;;;;;;;;;;;;;7369821;19;1772;-67
2022/12/09 08:18:51;;;;;;;;;;;;;;;;;;7372487;19;1821;-66
2022/12/09 08:21:19;;;;;;;;;;;;;;;;;;7372962;19;1590;-67
2022/12/09 08:23:48;;;;;;;;;;;;;;;;;;7370809;19;1616;-67
2022/12/09 08:26:16;;;;;;;;;;;;;;;;;;7369165;19;1619;-66
2022/12/09 08:28:44;;;;;;;;;;;;;;;;;;7368968;19;895;-67
2022/12/09 08:31:12;;;;;;;;;;;;;;;;;;7371305;19;1798;-62
2022/12/09 08:33:40;;;;;;;;;;;;;;;;;;7366392;19;1852;-65
2022/12/09 08:36:08;;;;;;;;;;;;;;;;;;7368643;19;1962;-66
2022/12/09 08:38:36;;;;;;;;;;;;;;;;;;7366826;19;1777;-66
2022/12/09 08:41:05;;;;;;;;;;;;;;;;;;7372941;19;2057;-65
2022/12/09 08:43:33;;;;;;;;;;;;;;;;;;7373275;19;1611;-66
2022/12/09 08:46:01;;;;;;;;;;;;;;;;;;7369438;19;2057;-67
2022/12/09 08:48:29;;;;;;;;;;;;;;;;;;7368963;19;1787;-65
2022/12/09 08:50:57;;;;;;;;;;;;;;;;;;7370145;19;1763;-65
2022/12/09 08:53:25;;;;;;;;;;;;;;;;;;7371045;19;1873;-67
2022/12/09 08:55:53;;;;;;;;;;;;;;;;;;7370872;19;1552;-67
2022/12/09 08:58:22;;;;;;;;;;;;;;;;;;7373394;19;1779;-65
2022/12/09 09:00:50;;;;;;;;;;;;;;;;;;7371492;19;812;-66
2022/12/09 09:03:18;;;;;;;;;;;;;;;;;;7373115;19;1658;-65
2022/12/09 09:05:46;;;;;;;;;;;;;;;;;;7372727;19;1769;-65
2022/12/09 09:08:14;;;;;;;;;;;;;;;;;;7371305;19;1763;-65
2022/12/09 09:10:42;;;;;;;;;;;;;;;;;;7371357;19;1793;-69
2022/12/09 09:13:11;;;;;;;;;;;;;;;;;;7372214;19;1854;-67
2022/12/09 09:15:39;;;;;;;;;;;;;;;;;;7368469;19;1748;-66
2022/12/09 09:18:07;;;;;;;;;;;;;;;;;;7366808;19;1785;-66
2022/12/09 09:20:35;;;;;;;;;;;;;;;;;;7370492;19;1831;-65
2022/12/09 09:23:03;;;;;;;;;;;;;;;;;;7372496;19;2057;-67
2022/12/09 09:25:31;;;;;;;;;;;;;;;;;;7366948;19;1606;-66
2022/12/09 09:28:00;;;;;;;;;;;;;;;;;;7364686;19;795;-66
2022/12/09 09:30:28;;;;;;;;;;;;;;;;;;7369604;19;1782;-66
2022/12/09 09:32:56;;;;;;;;;;;;;;;;;;7369864;19;1840;-66
2022/12/09 09:35:24;;;;;;;;;;;;;;;;;;7366700;19;1847;-66
2022/12/09 09:37:54;;;;;;;;;;;;;;;;;;7369989;19;1828;-67
2022/12/09 09:40:22;;;;;;;;;;;;;;;;;;7369917;19;1768;-64
2022/12/09 09:42:50;;;;;;;;;;;;;;;;;;7370270;19;1767;-63
2022/12/09 09:45:19;;;;;;;;;;;;;;;;;;7369821;19;2023;-65
2022/12/09 09:47:47;;;;;;;;;;;;;;;;;;7368868;19;1834;-65
2022/12/09 09:50:15;;;;;;;;;;;;;;;;;;7367579;19;1808;-64
2022/12/09 09:52:43;;;;;;;;;;;;;;;;;;7377632;19;1785;-65
2022/12/09 09:55:11;;;;;;;;;;;;;;;;;;7372704;19;2247;-65
2022/12/09 09:57:41;;;;;;;;;;;;;;;;;;7372203;19;1785;-66
2022/12/09 10:00:09;;;;;;;;;;;;;;;;;;7374959;19;1779;-65
2022/12/09 10:02:43;;;;;;;;;;;;;;;;;;7374380;19;1812;-65
2022/12/09 10:05:12;;;;;;;;;;;;;;;;;;7372992;19;889;-65
2022/12/09 10:07:40;;;;;;;;;;;;;;;;;;7372862;19;1259;-67
2022/12/09 10:10:08;;;;;;;;;;;;;;;;;;7373999;19;1630;-67
2022/12/09 10:12:36;;;;;;;;;;;;;;;;;;7374104;19;1752;-67
2022/12/09 10:15:04;;;;;;;;;;;;;;;;;;7371974;19;1841;-65
2022/12/09 10:17:32;;;;;;;;;;;;;;;;;;7374364;19;1643;-67
2022/12/09 10:20:02;;;;;;;;;;;;;;;;;;7376450;19;1856;-65
2022/12/09 10:22:30;;;;;;;;;;;;;;;;;;7375226;19;1767;-65
2022/12/09 10:24:58;;;;;;;;;;;;;;;;;;7371569;19;1814;-65
2022/12/09 10:27:26;;;;;;;;;;;;;;;;;;7372097;19;1850;-66
2022/12/09 10:29:54;;;;;;;;;;;;;;;;;;7374173;19;1769;-67
2022/12/09 10:32:25;;;;;;;;;;;;;;;;;;7381338;19;1772;-66
2022/12/09 10:34:53;;;;;;;;;;;;;;;;;;7382815;19;2128;-66
2022/12/09 10:37:21;;;;;;;;;;;;;;;;;;7375702;19;1362;-66
2022/12/09 10:39:49;;;;;;;;;;;;;;;;;;7378512;19;799;-66
2022/12/09 10:44:58;;;;;;;;;;;;;;;;;;7371339;19;837;-65
2022/12/09 10:47:26;;;;;;;;;;;;;;;;;;7369775;19;1347;-66
2022/12/09 10:49:55;;;;;;;;;;;;;;;;;;7370772;19;854;-64
2022/12/09 10:52:23;;;;;;;;;;;;;;;;;;7371209;19;805;-65
2022/12/09 10:54:51;;;;;;;;;;;;;;;;;;7369931;19;2185;-65
2022/12/09 10:57:19;;;;;;;;;;;;;;;;;;7370711;19;1294;-66
2022/12/09 10:59:47;;;;;;;;;;;;;;;;;;7371148;19;819;-63
2022/12/09 11:02:15;;;;;;;;;;;;;;;;;;7370859;19;817;-67
2022/12/09 11:04:43;;;;;;;;;;;;;;;;;;7372168;19;874;-65
2022/12/09 11:07:12;;;;;;;;;;;;;;;;;;7370117;19;1290;-67
2022/12/09 11:09:40;;;;;;;;;;;;;;;;;;7369566;19;802;-65
2022/12/09 11:12:08;;;;;;;;;;;;;;;;;;7370391;19;818;-65
2022/12/09 11:14:36;;;;;;;;;;;;;;;;;;7369648;19;1841;-66
2022/12/09 11:17:04;;;;;;;;;;;;;;;;;;7368646;19;1239;-66
2022/12/09 11:19:32;;;;;;;;;;;;;;;;;;7369197;19;957;-65
2022/12/09 11:22:00;;;;;;;;;;;;;;;;;;7370706;19;859;-66
2022/12/09 11:24:29;;;;;;;;;;;;;;;;;;7370074;19;837;-65
2022/12/09 11:26:57;;;;;;;;;;;;;;;;;;7367091;19;1255;-66
2022/12/09 11:29:25;;;;;;;;;;;;;;;;;;7369851;19;888;-66
2022/12/09 11:31:53;;;;;;;;;;;;;;;;;;7370196;19;866;-66
2022/12/09 11:34:21;;;;;;;;;;;;;;;;;;7370670;19;1853;-64
2022/12/09 11:36:50;;;;;;;;;;;;;;;;;;7369257;19;1326;-66
2022/12/09 11:39:18;;;;;;;;;;;;;;;;;;7370000;19;790;-67
2022/12/09 11:44:27;;;;;;;;;;;;;;;;;;7369430;19;798;-67
2022/12/09 11:46:55;;;;;;;;;;;;;;;;;;7368570;19;1343;-67
2022/12/09 11:49:23;;;;;;;;;;;;;;;;;;7369792;19;870;-66
2022/12/09 11:51:51;;;;;;;;;;;;;;;;;;7370194;19;869;-66
2022/12/09 11:54:19;;;;;;;;;;;;;;;;;;7369423;19;1867;-65
2022/12/09 11:56:48;;;;;;;;;;;;;;;;;;7368276;19;1255;-66
2022/12/09 11:59:19;;;;;;;;;;;;;;;;;;7367184;19;955;-65
2022/12/09 12:01:47;;;;;;;;;;;;;;;;;;7369812;19;863;-64
2022/12/09 12:04:15;;;;;;;;;;;;;;;;;;7367949;19;799;-65
2022/12/09 12:06:43;;;;;;;;;;;;;;;;;;7367297;19;1283;-69
2022/12/09 12:09:11;;;;;;;;;;;;;;;;;;7368194;19;1034;-65
2022/12/09 12:11:39;;;;;;;;;;;;;;;;;;7369955;19;868;-64
2022/12/09 12:14:07;;;;;;;;;;;;;;;;;;7368602;19;1857;-68
2022/12/09 12:16:36;;;;;;;;;;;;;;;;;;7369198;19;1145;-64
2022/12/09 12:19:04;;;;;;;;;;;;;;;;;;7367990;19;826;-66
2022/12/09 12:21:32;;;;;;;;;;;;;;;;;;7368882;19;847;-66
2022/12/09 12:24:00;;;;;;;;;;;;;;;;;;7368079;19;862;-66
2022/12/09 12:26:28;;;;;;;;;;;;;;;;;;7367442;19;1278;-67
2022/12/09 12:28:57;;;;;;;;;;;;;;;;;;7368922;19;811;-66
2022/12/09 12:31:25;;;;;;;;;;;;;;;;;;7369085;19;822;-66
2022/12/09 12:33:53;;;;;;;;;;;;;;;;;;7369216;19;826;-65
2022/12/09 12:36:21;;;;;;;;;;;;;;;;;;7365214;19;1865;-65
2022/12/09 12:38:49;;;;;;;;;;;;;;;;;;7367957;19;900;-66
2022/12/09 12:41:17;;;;;;;;;;;;;;;;;;7368800;19;790;-66
2022/12/09 12:46:26;;;;;;;;;;;;;;;;;;7368369;19;1357;-65
2022/12/09 12:48:54;;;;;;;;;;;;;;;;;;7369246;19;816;-66
2022/12/09 12:51:22;;;;;;;;;;;;;;;;;;7369855;19;807;-66
2022/12/09 12:53:50;;;;;;;;;;;;;;;;;;7370825;19;869;-66
2022/12/09 12:56:19;;;;;;;;;;;;;;;;;;7377208;19;1845;-66
2022/12/09 12:58:47;;;;;;;;;;;;;;;;;;7384247;19;819;-66
2022/12/09 13:01:15;;;;;;;;;;;;;;;;;;7383703;19;1059;-67
2022/12/09 13:03:43;;;;;;;;;;;;;;;;;;7383921;19;826;-67
2022/12/09 13:06:11;;;;;;;;;;;;;;;;;;7383623;19;1314;-67
2022/12/09 13:08:40;;;;;;;;;;;;;;;;;;7382282;19;829;-66
2022/12/09 13:11:08;;;;;;;;;;;;;;;;;;7373728;19;772;-65
2022/12/09 13:13:36;;;;;;;;;;;;;;;;;;7370296;19;861;-64
2022/12/09 13:16:04;;;;;;;;;;;;;;;;;;7367534;19;1819;-66
2022/12/09 13:18:34;;;;;;;;;;;;;;;;;;7369274;19;757;-64
2022/12/09 13:21:02;;;;;;;;;;;;;;;;;;7369817;19;878;-65
2022/12/09 13:23:31;;;;;;;;;;;;;;;;;;7369709;19;900;-66
2022/12/09 13:26:01;;;;;;;;;;;;;;;;;;7372454;19;1670;-66
2022/12/09 13:28:29;;;;;;;;;;;;;;;;;;7376035;19;1828;-66
2022/12/09 13:30:58;;;;;;;;;;;;;;;;;;7375916;19;1743;-66
2022/12/09 13:33:27;;;;;;;;;;;;;;;;;;7376773;19;1778;-66
2022/12/09 13:35:55;;;;;;;;;;;;;;;;;;7375070;19;1826;-64
2022/12/09 13:38:23;;;;;;;;;;;;;;;;;;7374442;19;1836;-66
2022/12/09 13:40:51;;;;;;;;;;;;;;;;;;7375794;19;1801;-68
2022/12/09 13:43:19;;;;;;;;;;;;;;;;;;7374759;19;2051;-66
2022/12/09 13:45:48;;;;;;;;;;;;;;;;;;7374534;19;1802;-65
2022/12/09 13:48:16;;;;;;;;;;;;;;;;;;7374536;19;1796;-66
2022/12/09 13:50:44;;;;;;;;;;;;;;;;;;7372247;19;827;-67
2022/12/09 13:53:12;;;;;;;;;;;;;;;;;;7371054;19;819;-64
2022/12/09 13:55:40;;;;;;;;;;;;;;;;;;7375246;19;1845;-63
2022/12/09 13:58:08;;;;;;;;;;;;;;;;;;7370212;19;885;-66
2022/12/09 14:00:37;;;;;;;;;;;;;;;;;;7372908;19;858;-65
2022/12/09 14:03:05;;;;;;;;;;;;;;;;;;7376373;19;1774;-67
2022/12/09 14:05:33;;;;;;;;;;;;;;;;;;7371837;19;1827;-67
2022/12/09 14:08:01;;;;;;;;;;;;;;;;;;7371986;19;1798;-64
2022/12/09 14:10:29;;;;;;;;;;;;;;;;;;7373039;19;1771;-65
2022/12/09 14:12:57;;;;;;;;;;;;;;;;;;7375639;19;1740;-65
2022/12/09 14:15:27;;;;;;;;;;;;;;;;;;7370234;19;1857;-65
2022/12/09 14:17:55;;;;;;;;;;;;;;;;;;7371398;19;1794;-67
2022/12/09 14:20:23;;;;;;;;;;;;;;;;;;7375616;19;1646;-67
2022/12/09 14:22:51;;;;;;;;;;;;;;;;;;7375049;19;1762;-66
2022/12/09 14:25:19;;;;;;;;;;;;;;;;;;7372459;19;872;-65
2022/12/09 14:27:47;;;;;;;;;;;;;;;;;;7372830;19;1531;-66
2022/12/09 14:30:16;;;;;;;;;;;;;;;;;;7371971;19;866;-65
2022/12/09 14:32:44;;;;;;;;;;;;;;;;;;7370998;19;898;-64
2022/12/09 14:35:12;;;;;;;;;;;;;;;;;;7370121;19;1852;-65
2022/12/09 14:37:41;;;;;;;;;;;;;;;;;;7365983;19;1283;-66
2022/12/09 14:40:09;;;;;;;;;;;;;;;;;;7372057;19;784;-63
2022/12/09 14:42:37;;;;;;;;;;;;;;;;;;7375954;19;1649;-65
2022/12/09 14:45:05;;;;;;;;;;;;;;;;;;7372030;19;853;-64
2022/12/09 14:47:33;;;;;;;;;;;;;;;;;;7369842;19;1286;-65
2022/12/09 14:50:02;;;;;;;;;;;;;;;;;;7370729;19;892;-68
2022/12/09 14:52:30;;;;;;;;;;;;;;;;;;7370852;19;814;-59
2022/12/09 14:54:58;;;;;;;;;;;;;;;;;;7371245;19;1861;-63
2022/12/09 14:57:26;;;;;;;;;;;;;;;;;;7368638;19;1318;-64
2022/12/09 14:59:54;;;;;;;;;;;;;;;;;;7369186;19;867;-66
2022/12/09 15:02:22;;;;;;;;;;;;;;;;;;7370090;19;1150;-64
2022/12/09 15:04:50;;;;;;;;;;;;;;;;;;7368990;19;875;-65
2022/12/09 15:07:19;;;;;;;;;;;;;;;;;;7368864;19;1359;-64
2022/12/09 15:09:47;;;;;;;;;;;;;;;;;;7368720;19;850;-64
2022/12/09 15:12:15;;;;;;;;;;;;;;;;;;7370764;19;891;-66
2022/12/09 15:14:43;;;;;;;;;;;;;;;;;;7370369;19;807;-65
2022/12/09 15:17:11;;;;;;;;;;;;;;;;;;7368875;19;1813;-64
2022/12/09 15:19:39;;;;;;;;;;;;;;;;;;7370049;19;897;-65
2022/12/09 15:22:08;;;;;;;;;;;;;;;;;;7370773;19;851;-65
2022/12/09 15:24:36;;;;;;;;;;;;;;;;;;7370512;19;831;-67
2022/12/09 15:27:04;;;;;;;;;;;;;;;;;;7369235;19;1862;-66
2022/12/09 15:29:32;;;;;;;;;;;;;;;;;;7370864;19;934;-64
2022/12/09 15:32:00;;;;;;;;;;;;;;;;;;7370687;19;795;-67
2022/12/09 15:34:28;;;;;;;;;;;;;;;;;;7373731;19;1797;-67
2022/12/09 15:36:57;;;;;;;;;;;;;;;;;;7371171;19;1843;-65
2022/12/09 15:39:25;;;;;;;;;;;;;;;;;;7372143;19;1815;-67
2022/12/09 15:44:33;;;;;;;;;;;;;;;;;;7372381;19;817;-65
2022/12/09 15:47:02;;;;;;;;;;;;;;;;;;7372472;19;1769;-65
2022/12/09 15:49:30;;;;;;;;;;;;;;;;;;7367849;19;775;-64
2022/12/09 15:51:58;;;;;;;;;;;;;;;;;;7371436;19;849;-64
2022/12/09 15:54:26;;;;;;;;;;;;;;;;;;7370147;19;805;-64
2022/12/09 15:56:54;;;;;;;;;;;;;;;;;;7368043;19;1862;-63
2022/12/09 15:59:23;;;;;;;;;;;;;;;;;;7368145;19;763;-64
2022/12/09 16:01:51;;;;;;;;;;;;;;;;;;7369535;19;820;-64
2022/12/09 16:04:19;;;;;;;;;;;;;;;;;;7370222;19;940;-64
2022/12/09 16:06:47;;;;;;;;;;;;;;;;;;7372599;19;1776;-63
2022/12/09 16:09:15;;;;;;;;;;;;;;;;;;7371108;19;831;-64
2022/12/09 16:11:44;;;;;;;;;;;;;;;;;;7372360;19;819;-64
2022/12/09 16:14:12;;;;;;;;;;;;;;;;;;7372459;19;831;-65
2022/12/09 16:16:40;;;;;;;;;;;;;;;;;;7369762;19;1857;-65
2022/12/09 16:19:08;;;;;;;;;;;;;;;;;;7369292;19;1086;-64
2022/12/09 16:21:37;;;;;;;;;;;;;;;;;;7371078;19;1036;-64
2022/12/09 16:24:05;;;;;;;;;;;;;;;;;;7370531;19;824;-64
2022/12/09 16:26:33;;;;;;;;;;;;;;;;;;7367705;19;1243;-65
2022/12/09 16:29:01;;;;;;;;;;;;;;;;;;7368034;19;826;-65
2022/12/09 16:31:29;;;;;;;;;;;;;;;;;;7367944;19;808;-65
2022/12/09 16:33:57;;;;;;;;;;;;;;;;;;7366664;19;834;-64
2022/12/09 16:36:25;;;;;;;;;;;;;;;;;;7366815;19;1851;-64
2022/12/09 16:38:54;;;;;;;;;;;;;;;;;;7365850;19;787;-64
2022/12/09 16:41:22;;;;;;;;;;;;;;;;;;7367945;19;813;-62
2022/12/09 16:43:50;;;;;;;;;;;;;;;;;;7366512;19;854;-64
2022/12/09 16:46:18;;;;;;;;;;;;;;;;;;7364829;19;1329;-64
2022/12/09 16:48:46;;;;;;;;;;;;;;;;;;7366510;19;792;-64
2022/12/09 16:51:16;;;;;;;;;;;;;;;;;;7367132;19;1075;-64
2022/12/09 16:53:44;;;;;;;;;;;;;;;;;;7366932;19;809;-62
2022/12/09 16:56:12;;;;;;;;;;;;;;;;;;7365113;19;1842;-64
2022/12/09 16:58:40;;;;;;;;;;;;;;;;;;7368939;19;1806;-64
2022/12/09 17:01:08;;;;;;;;;;;;;;;;;;7379428;19;799;-63
2022/12/09 17:03:36;;;;;;;;;;;;;;;;;;7381563;19;1774;-61
2022/12/09 17:06:05;;;;;;;;;;;;;;;;;;7379841;19;1333;-65
2022/12/09 17:08:33;;;;;;;;;;;;;;;;;;7379697;19;889;-64
2022/12/09 17:11:01;;;;;;;;;;;;;;;;;;7381259;19;1635;-64
2022/12/09 17:13:29;;;;;;;;;;;;;;;;;;7380253;19;804;-63
2022/12/09 17:15:58;;;;;;;;;;;;;;;;;;7378979;19;1843;-64
2022/12/09 17:18:26;;;;;;;;;;;;;;;;;;7379344;19;807;-65
2022/12/09 17:20:54;;;;;;;;;;;;;;;;;;7378629;19;815;-65
2022/12/09 17:23:22;;;;;;;;;;;;;;;;;;7380249;19;799;-64
2022/12/09 17:25:50;;;;;;;;;;;;;;;;;;7379087;19;1231;-65
2022/12/09 17:28:19;;;;;;;;;;;;;;;;;;7379211;19;802;-64